Time;durP1;ratioP1;P1;durP2;ratioP2;P2;SDS_P1;SDS_P2;PMS_P1;PMS_P2;Temp;Humidity;BMP_temperature;BMP_pressure;BME280_temperature;BME280_humidity;BME280_pressure;Samples;Min_cycle;Max_cycle;Signal;HPM_P1;HPM_P2
2023/04/09 00:01:26;;;;;;;;;;;;;;;;;;2200017;67;1703;-21
2023/04/09 00:03:56;;;;;;;;;;;;;;;;;;2199805;59;2767;-22
2023/04/09 00:06:26;;;;;;;;;;;;;;;;;;2199960;59;1268;-22
2023/04/09 00:08:56;;;;;;;;;;;;;;;;;;2200346;67;1341;-22
2023/04/09 00:11:27;;;;;;;;;;;;;;;;;;2199833;59;1991;-22
2023/04/09 00:13:57;;;;;;;;;;;;;;;;;;2200608;59;1630;-22
2023/04/09 00:16:28;;;;;;;;;;;;;;;;;;2196950;67;1702;-22
2023/04/09 00:18:58;;;;;;;;;;;;;;;;;;2200334;67;1572;-22
2023/04/09 00:21:28;;;;;;;;;;;;;;;;;;2200492;67;1634;-22
2023/04/09 00:23:58;;;;;;;;;;;;;;;;;;2200254;67;1709;-22
2023/04/09 00:26:30;;;;;;;;;;;;;;;;;;2200302;59;1780;-22
2023/04/09 00:29:00;;;;;;;;;;;;;;;;;;2200438;67;1746;-22
2023/04/09 00:31:30;;;;;;;;;;;;;;;;;;2197648;59;1932;-21
2023/04/09 00:34:00;;;;;;;;;;;;;;;;;;2201027;59;1647;-21
2023/04/09 00:36:31;;;;;;;;;;;;;;;;;;2202122;59;1682;-20
2023/04/09 00:39:01;;;;;;;;;;;;;;;;;;2201131;67;1883;-21
2023/04/09 00:41:31;;;;;;;;;;;;;;;;;;2197642;59;1944;-21
2023/04/09 00:44:01;;;;;;;;;;;;;;;;;;2197380;67;1637;-21
2023/04/09 00:46:32;;;;;;;;;;;;;;;;;;2200847;67;1414;-20
2023/04/09 00:49:02;;;;;;;;;;;;;;;;;;2200472;67;2129;-20
2023/04/09 00:51:32;;;;;;;;;;;;;;;;;;2200024;67;1991;-20
2023/04/09 00:54:03;;;;;;;;;;;;;;;;;;2200481;59;1632;-20
2023/04/09 00:56:33;;;;;;;;;;;;;;;;;;2200732;67;1816;-20
2023/04/09 00:59:03;;;;;;;;;;;;;;;;;;2200244;59;1244;-20
2023/04/09 01:01:34;;;;;;;;;;;;;;;;;;2201007;67;1679;-20
2023/04/09 01:04:04;;;;;;;;;;;;;;;;;;2198414;59;2783;-20
2023/04/09 01:06:34;;;;;;;;;;;;;;;;;;2200638;67;1687;-21
2023/04/09 01:09:07;;;;;;;;;;;;;;;;;;2200768;59;1581;-21
2023/04/09 01:11:58;;;;;;;;;;;;;;;;;;2200730;67;2266;-20
2023/04/09 01:14:34;;;;;;;;;;;;;;;;;;2200254;67;2010;-21
2023/04/09 01:17:09;;;;;;;;;;;;;;;;;;2201299;59;2051;-21
2023/04/09 01:19:43;;;;;;;;;;;;;;;;;;2200932;67;1817;-20
2023/04/09 01:22:29;;;;;;;;;;;;;;;;;;2201021;67;2199;-20
2023/04/09 01:25:06;;;;;;;;;;;;;;;;;;2197675;60;1851;-20
2023/04/09 01:27:42;;;;;;;;;;;;;;;;;;2199966;59;1747;-20
2023/04/09 01:30:14;;;;;;;;;;;;;;;;;;2200967;67;1937;-20
2023/04/09 01:32:44;;;;;;;;;;;;;;;;;;2194451;59;2334;-20
2023/04/09 01:35:15;;;;;;;;;;;;;;;;;;2200457;59;2257;-20
2023/04/09 01:37:45;;;;;;;;;;;;;;;;;;2196554;67;1574;-21
2023/04/09 01:40:16;;;;;;;;;;;;;;;;;;2199492;67;1583;-21
2023/04/09 01:42:47;;;;;;;;;;;;;;;;;;2200879;59;1752;-20
2023/04/09 01:45:19;;;;;;;;;;;;;;;;;;2200251;67;1584;-20
2023/04/09 01:47:50;;;;;;;;;;;;;;;;;;2197369;67;1264;-20
2023/04/09 01:50:20;;;;;;;;;;;;;;;;;;2200276;59;1985;-20
2023/04/09 01:52:51;;;;;;;;;;;;;;;;;;2200268;59;1765;-20
2023/04/09 01:55:21;;;;;;;;;;;;;;;;;;2199886;67;1787;-20
2023/04/09 01:57:51;;;;;;;;;;;;;;;;;;2200059;59;1793;-20
2023/04/09 02:00:22;;;;;;;;;;;;;;;;;;2205701;53;1795;-17
2023/04/09 02:03:11;;;;;;;;;;;;;;;;;;2202181;67;1316;-17
2023/04/09 02:05:51;;;;;;;;;;;;;;;;;;2205899;59;2693;-17
2023/04/09 02:08:23;;;;;;;;;;;;;;;;;;2205869;67;1262;-17
2023/04/09 02:10:55;;;;;;;;;;;;;;;;;;2203860;59;1932;-17
2023/04/09 02:13:27;;;;;;;;;;;;;;;;;;2203515;59;1245;-17
2023/04/09 02:15:58;;;;;;;;;;;;;;;;;;2201948;59;1498;-17
2023/04/09 02:18:29;;;;;;;;;;;;;;;;;;2199689;67;1243;-17
2023/04/09 02:21:00;;;;;;;;;;;;;;;;;;2205385;67;1335;-17
2023/04/09 02:23:32;;;;;;;;;;;;;;;;;;2205300;67;1434;-17
2023/04/09 02:26:02;;;;;;;;;;;;;;;;;;2202281;59;1318;-17
2023/04/09 02:28:33;;;;;;;;;;;;;;;;;;2201870;67;1273;-17
2023/04/09 02:31:03;;;;;;;;;;;;;;;;;;2202349;59;1929;-17
2023/04/09 02:33:34;;;;;;;;;;;;;;;;;;2201585;59;1192;-17
2023/04/09 02:36:04;;;;;;;;;;;;;;;;;;2202191;59;1327;-17
2023/04/09 02:38:35;;;;;;;;;;;;;;;;;;2203034;67;1232;-17
2023/04/09 02:41:05;;;;;;;;;;;;;;;;;;2200648;59;1409;-17
2023/04/09 02:43:35;;;;;;;;;;;;;;;;;;2201237;67;1328;-17
2023/04/09 02:46:06;;;;;;;;;;;;;;;;;;2201294;67;2406;-17
2023/04/09 02:48:36;;;;;;;;;;;;;;;;;;2202451;67;1270;-17
2023/04/09 02:51:07;;;;;;;;;;;;;;;;;;2198047;67;2031;-17
2023/04/09 02:53:39;;;;;;;;;;;;;;;;;;2200895;59;1759;-17
2023/04/09 02:56:09;;;;;;;;;;;;;;;;;;2202385;59;2050;-17
2023/04/09 02:58:40;;;;;;;;;;;;;;;;;;2201940;59;1371;-17
2023/04/09 03:01:10;;;;;;;;;;;;;;;;;;2201960;67;1343;-17
2023/04/09 03:03:41;;;;;;;;;;;;;;;;;;2201961;59;2136;-17
2023/04/09 03:06:13;;;;;;;;;;;;;;;;;;2201454;59;2075;-17
2023/04/09 03:08:43;;;;;;;;;;;;;;;;;;2200793;67;1166;-17
2023/04/09 03:11:14;;;;;;;;;;;;;;;;;;2202337;59;1905;-17
2023/04/09 03:13:44;;;;;;;;;;;;;;;;;;2202574;59;1615;-17
2023/04/09 03:16:15;;;;;;;;;;;;;;;;;;2201062;59;2017;-17
2023/04/09 03:18:45;;;;;;;;;;;;;;;;;;2202462;67;1247;-17
2023/04/09 03:21:15;;;;;;;;;;;;;;;;;;2200731;67;1117;-17
2023/04/09 03:23:46;;;;;;;;;;;;;;;;;;2200714;67;1325;-17
2023/04/09 03:26:16;;;;;;;;;;;;;;;;;;2201789;59;1137;-17
2023/04/09 03:28:47;;;;;;;;;;;;;;;;;;2201315;67;1235;-17
2023/04/09 03:31:17;;;;;;;;;;;;;;;;;;2197527;67;1929;-17
2023/04/09 03:33:47;;;;;;;;;;;;;;;;;;2201542;59;1673;-17
2023/04/09 03:36:18;;;;;;;;;;;;;;;;;;2198786;59;1689;-17
2023/04/09 03:38:48;;;;;;;;;;;;;;;;;;2202911;67;1346;-17
2023/04/09 03:41:19;;;;;;;;;;;;;;;;;;2202119;59;1447;-17
2023/04/09 03:43:49;;;;;;;;;;;;;;;;;;2203050;67;1105;-17
2023/04/09 03:46:19;;;;;;;;;;;;;;;;;;2200465;67;1358;-17
2023/04/09 03:48:50;;;;;;;;;;;;;;;;;;2201987;67;1312;-17
2023/04/09 03:51:20;;;;;;;;;;;;;;;;;;2202097;59;1938;-17
2023/04/09 03:53:50;;;;;;;;;;;;;;;;;;2201122;67;1716;-17
2023/04/09 03:56:21;;;;;;;;;;;;;;;;;;2197855;59;1114;-18
2023/04/09 03:58:51;;;;;;;;;;;;;;;;;;2201294;59;2371;-17
2023/04/09 04:01:21;;;;;;;;;;;;;;;;;;2201704;67;1332;-17
2023/04/09 04:03:52;;;;;;;;;;;;;;;;;;2198285;59;1885;-17
2023/04/09 04:06:26;;;;;;;;;;;;;;;;;;2200476;67;1366;-17
2023/04/09 04:08:56;;;;;;;;;;;;;;;;;;2200900;67;1311;-17
2023/04/09 04:11:26;;;;;;;;;;;;;;;;;;2200226;67;1993;-17
2023/04/09 04:13:57;;;;;;;;;;;;;;;;;;2197009;59;1423;-17
2023/04/09 04:16:27;;;;;;;;;;;;;;;;;;2200896;67;1807;-17
2023/04/09 04:18:57;;;;;;;;;;;;;;;;;;2201548;67;1819;-17
2023/04/09 04:21:30;;;;;;;;;;;;;;;;;;2197086;67;1330;-17
2023/04/09 04:24:01;;;;;;;;;;;;;;;;;;2196157;67;1132;-17
2023/04/09 04:26:31;;;;;;;;;;;;;;;;;;2196610;59;1350;-17
2023/04/09 04:29:01;;;;;;;;;;;;;;;;;;2197393;67;1689;-17
2023/04/09 04:31:32;;;;;;;;;;;;;;;;;;2200887;67;1941;-17
2023/04/09 04:34:02;;;;;;;;;;;;;;;;;;2202851;59;2026;-17
2023/04/09 04:36:36;;;;;;;;;;;;;;;;;;2201615;59;1295;-17
2023/04/09 04:39:07;;;;;;;;;;;;;;;;;;2200326;59;1191;-17
2023/04/09 04:41:37;;;;;;;;;;;;;;;;;;2201523;59;1264;-17
2023/04/09 04:44:07;;;;;;;;;;;;;;;;;;2202771;67;1094;-17
2023/04/09 04:46:37;;;;;;;;;;;;;;;;;;2197453;67;1433;-17
2023/04/09 04:49:08;;;;;;;;;;;;;;;;;;2201787;67;1794;-17
2023/04/09 04:51:38;;;;;;;;;;;;;;;;;;2201332;67;1936;-17
2023/04/09 04:54:08;;;;;;;;;;;;;;;;;;2202203;67;1124;-17
2023/04/09 04:56:39;;;;;;;;;;;;;;;;;;2201879;67;1113;-17
2023/04/09 04:59:09;;;;;;;;;;;;;;;;;;2202114;59;1353;-17
2023/04/09 05:01:39;;;;;;;;;;;;;;;;;;2202127;67;1428;-17
2023/04/09 05:04:09;;;;;;;;;;;;;;;;;;2202154;59;1797;-17
2023/04/09 05:06:40;;;;;;;;;;;;;;;;;;2201670;67;1171;-17
2023/04/09 05:09:10;;;;;;;;;;;;;;;;;;2200633;59;1212;-17
2023/04/09 05:11:41;;;;;;;;;;;;;;;;;;2200645;59;2000;-17
2023/04/09 05:14:12;;;;;;;;;;;;;;;;;;2198644;59;1122;-17
2023/04/09 05:16:42;;;;;;;;;;;;;;;;;;2197298;59;1290;-17
2023/04/09 05:19:12;;;;;;;;;;;;;;;;;;2199959;67;1801;-17
2023/04/09 05:21:42;;;;;;;;;;;;;;;;;;2198035;67;1349;-17
2023/04/09 05:24:13;;;;;;;;;;;;;;;;;;2198110;67;1640;-17
2023/04/09 05:26:43;;;;;;;;;;;;;;;;;;2201084;59;1134;-17
2023/04/09 05:29:17;;;;;;;;;;;;;;;;;;2200775;67;1227;-17
2023/04/09 05:31:47;;;;;;;;;;;;;;;;;;2197405;67;1945;-17
2023/04/09 05:34:17;;;;;;;;;;;;;;;;;;2202012;59;1490;-17
2023/04/09 05:36:47;;;;;;;;;;;;;;;;;;2200956;59;1681;-17
2023/04/09 05:39:18;;;;;;;;;;;;;;;;;;2201274;67;1227;-17
2023/04/09 05:41:51;;;;;;;;;;;;;;;;;;2198280;59;1661;-19
2023/04/09 05:44:21;;;;;;;;;;;;;;;;;;2199650;67;1294;-19
2023/04/09 05:46:52;;;;;;;;;;;;;;;;;;2201919;59;1496;-19
2023/04/09 05:49:22;;;;;;;;;;;;;;;;;;2202900;59;1648;-19
2023/04/09 05:51:53;;;;;;;;;;;;;;;;;;2198269;67;1952;-19
2023/04/09 05:54:24;;;;;;;;;;;;;;;;;;2201781;59;1285;-19
2023/04/09 05:56:55;;;;;;;;;;;;;;;;;;2202287;59;1134;-19
2023/04/09 05:59:25;;;;;;;;;;;;;;;;;;2203482;59;1156;-19
2023/04/09 06:01:56;;;;;;;;;;;;;;;;;;2203092;67;1338;-19
2023/04/09 06:04:26;;;;;;;;;;;;;;;;;;2202553;59;1926;-19
2023/04/09 06:06:59;;;;;;;;;;;;;;;;;;2202447;67;2178;-19
2023/04/09 06:09:29;;;;;;;;;;;;;;;;;;2198921;59;1917;-19
2023/04/09 06:11:59;;;;;;;;;;;;;;;;;;2203019;59;1224;-19
2023/04/09 06:14:31;;;;;;;;;;;;;;;;;;2203010;67;1488;-19
2023/04/09 06:17:02;;;;;;;;;;;;;;;;;;2202792;67;1361;-19
2023/04/09 06:19:32;;;;;;;;;;;;;;;;;;2201383;67;1701;-19
2023/04/09 06:22:02;;;;;;;;;;;;;;;;;;2201729;67;2372;-19
2023/04/09 06:24:33;;;;;;;;;;;;;;;;;;2202458;67;1223;-19
2023/04/09 06:27:03;;;;;;;;;;;;;;;;;;2198680;59;1287;-19
2023/04/09 06:29:33;;;;;;;;;;;;;;;;;;2199569;59;1991;-19
2023/04/09 06:32:04;;;;;;;;;;;;;;;;;;2201862;59;1481;-19
2023/04/09 06:34:35;;;;;;;;;;;;;;;;;;2198632;59;1318;-19
2023/04/09 06:37:06;;;;;;;;;;;;;;;;;;2199296;59;1255;-19
2023/04/09 06:39:37;;;;;;;;;;;;;;;;;;2198283;59;1698;-19
2023/04/09 06:42:10;;;;;;;;;;;;;;;;;;2198265;59;1937;-19
2023/04/09 06:44:40;;;;;;;;;;;;;;;;;;2200977;67;2275;-19
2023/04/09 06:47:11;;;;;;;;;;;;;;;;;;2200540;59;2225;-19
2023/04/09 06:49:41;;;;;;;;;;;;;;;;;;2201102;59;2114;-19
2023/04/09 06:52:11;;;;;;;;;;;;;;;;;;2202797;67;1757;-19
2023/04/09 06:54:42;;;;;;;;;;;;;;;;;;2201810;59;2643;-19
2023/04/09 06:57:12;;;;;;;;;;;;;;;;;;2202104;59;1530;-19
2023/04/09 06:59:43;;;;;;;;;;;;;;;;;;2201168;59;2715;-19
2023/04/09 07:02:13;;;;;;;;;;;;;;;;;;2202559;67;1673;-19
2023/04/09 07:04:43;;;;;;;;;;;;;;;;;;2199063;59;2816;-19
2023/04/09 07:07:14;;;;;;;;;;;;;;;;;;2202772;67;2305;-19
2023/04/09 07:09:44;;;;;;;;;;;;;;;;;;2203640;59;1937;-19
2023/04/09 07:12:24;;;;;;;;;;;;;;;;;;2202218;59;2205;-19
2023/04/09 07:15:01;;;;;;;;;;;;;;;;;;2201283;59;2207;-19
2023/04/09 07:17:31;;;;;;;;;;;;;;;;;;2199991;67;2381;-19
2023/04/09 07:20:02;;;;;;;;;;;;;;;;;;2203098;67;1740;-19
2023/04/09 07:22:32;;;;;;;;;;;;;;;;;;2203097;59;2655;-19
2023/04/09 07:25:03;;;;;;;;;;;;;;;;;;2200396;59;2357;-19
2023/04/09 07:27:33;;;;;;;;;;;;;;;;;;2201963;59;2220;-19
2023/04/09 07:30:04;;;;;;;;;;;;;;;;;;2202702;59;2167;-19
2023/04/09 07:32:34;;;;;;;;;;;;;;;;;;2201023;59;2499;-19
2023/04/09 07:35:06;;;;;;;;;;;;;;;;;;2200815;59;1929;-20
2023/04/09 07:37:37;;;;;;;;;;;;;;;;;;2200939;59;2155;-19
2023/04/09 07:40:07;;;;;;;;;;;;;;;;;;2202096;67;1405;-20
2023/04/09 07:42:38;;;;;;;;;;;;;;;;;;2202111;59;2046;-20
2023/04/09 07:45:08;;;;;;;;;;;;;;;;;;2203154;67;1798;-20
2023/04/09 07:47:40;;;;;;;;;;;;;;;;;;2202167;67;2259;-20
2023/04/09 07:50:13;;;;;;;;;;;;;;;;;;2198017;59;2937;-20
2023/04/09 07:52:44;;;;;;;;;;;;;;;;;;2198072;59;2639;-20
2023/04/09 07:55:14;;;;;;;;;;;;;;;;;;2201802;67;1590;-20
2023/04/09 07:57:45;;;;;;;;;;;;;;;;;;2202050;59;2239;-19
2023/04/09 08:00:15;;;;;;;;;;;;;;;;;;2204134;53;2229;-25
2023/04/09 08:02:46;;;;;;;;;;;;;;;;;;2202505;59;2257;-25
2023/04/09 08:05:16;;;;;;;;;;;;;;;;;;2205041;59;1728;-25
2023/04/09 08:07:46;;;;;;;;;;;;;;;;;;2200914;59;2220;-23
2023/04/09 08:10:16;;;;;;;;;;;;;;;;;;2205049;59;1941;-23
2023/04/09 08:12:47;;;;;;;;;;;;;;;;;;2200218;59;2181;-23
2023/04/09 08:15:17;;;;;;;;;;;;;;;;;;2203967;59;2182;-23
2023/04/09 08:17:48;;;;;;;;;;;;;;;;;;2204329;59;1268;-23
2023/04/09 08:20:18;;;;;;;;;;;;;;;;;;2204695;59;2061;-23
2023/04/09 08:22:48;;;;;;;;;;;;;;;;;;2204923;67;1818;-23
2023/04/09 08:25:19;;;;;;;;;;;;;;;;;;2203018;59;2053;-23
2023/04/09 08:27:49;;;;;;;;;;;;;;;;;;2203030;59;3152;-23
2023/04/09 08:30:20;;;;;;;;;;;;;;;;;;2200378;59;2569;-23
2023/04/09 08:32:50;;;;;;;;;;;;;;;;;;2206733;59;1316;-23
2023/04/09 08:35:20;;;;;;;;;;;;;;;;;;2200009;59;2252;-23
2023/04/09 08:37:50;;;;;;;;;;;;;;;;;;2201494;67;1651;-23
2023/04/09 08:40:23;;;;;;;;;;;;;;;;;;2203671;59;2080;-23
2023/04/09 08:42:57;;;;;;;;;;;;;;;;;;2204349;67;1881;-23
2023/04/09 08:45:28;;;;;;;;;;;;;;;;;;2204109;59;2029;-23
2023/04/09 08:47:58;;;;;;;;;;;;;;;;;;2204691;59;1912;-23
2023/04/09 08:50:30;;;;;;;;;;;;;;;;;;2203593;59;2240;-23
2023/04/09 08:53:04;;;;;;;;;;;;;;;;;;2204616;59;1229;-23
2023/04/09 08:55:36;;;;;;;;;;;;;;;;;;2204001;59;2214;-23
2023/04/09 08:58:06;;;;;;;;;;;;;;;;;;2203446;59;2513;-23
2023/04/09 09:00:37;;;;;;;;;;;;;;;;;;2203387;59;2199;-22
2023/04/09 09:03:09;;;;;;;;;;;;;;;;;;2203240;59;2130;-22
2023/04/09 09:05:40;;;;;;;;;;;;;;;;;;2203909;59;2125;-22
2023/04/09 09:08:21;;;;;;;;;;;;;;;;;;2203180;59;1481;-22
2023/04/09 09:10:51;;;;;;;;;;;;;;;;;;2203293;59;2377;-22
2023/04/09 09:13:27;;;;;;;;;;;;;;;;;;2203951;67;1152;-22
2023/04/09 09:16:11;;;;;;;;;;;;;;;;;;2203346;59;2041;-22
2023/04/09 09:18:42;;;;;;;;;;;;;;;;;;2201385;59;2158;-21
2023/04/09 09:21:16;;;;;;;;;;;;;;;;;;2204094;59;2079;-22
2023/04/09 09:23:47;;;;;;;;;;;;;;;;;;2204790;67;1417;-22
2023/04/09 09:26:19;;;;;;;;;;;;;;;;;;2202795;59;2226;-22
2023/04/09 09:28:49;;;;;;;;;;;;;;;;;;2199449;59;2632;-22
2023/04/09 09:31:20;;;;;;;;;;;;;;;;;;2203619;59;2253;-22
2023/04/09 09:33:51;;;;;;;;;;;;;;;;;;2204410;59;1772;-22
2023/04/09 09:36:31;;;;;;;;;;;;;;;;;;2204096;59;2295;-22
2023/04/09 09:39:04;;;;;;;;;;;;;;;;;;2201258;59;1705;-22
2023/04/09 09:41:34;;;;;;;;;;;;;;;;;;2200775;59;2428;-22
2023/04/09 09:44:06;;;;;;;;;;;;;;;;;;2204177;59;1663;-22
2023/04/09 09:46:37;;;;;;;;;;;;;;;;;;2203865;59;2086;-23
2023/04/09 09:49:08;;;;;;;;;;;;;;;;;;2204296;59;2112;-22
2023/04/09 09:51:38;;;;;;;;;;;;;;;;;;2203396;59;2148;-22
2023/04/09 09:54:09;;;;;;;;;;;;;;;;;;2202342;59;2092;-22
2023/04/09 09:56:42;;;;;;;;;;;;;;;;;;2198407;59;2100;-22
2023/04/09 09:59:18;;;;;;;;;;;;;;;;;;2203699;59;1769;-22
2023/04/09 10:01:55;;;;;;;;;;;;;;;;;;2204085;59;2342;-22
2023/04/09 10:04:27;;;;;;;;;;;;;;;;;;2199882;59;2782;-22
2023/04/09 10:06:59;;;;;;;;;;;;;;;;;;2204056;59;2090;-23
2023/04/09 10:09:30;;;;;;;;;;;;;;;;;;2204200;59;1510;-23
2023/04/09 10:12:01;;;;;;;;;;;;;;;;;;2200498;59;2211;-23
2023/04/09 10:14:32;;;;;;;;;;;;;;;;;;2200710;59;1958;-23
2023/04/09 10:17:03;;;;;;;;;;;;;;;;;;2202882;59;2796;-23
2023/04/09 10:19:37;;;;;;;;;;;;;;;;;;2203176;67;1552;-23
2023/04/09 10:22:09;;;;;;;;;;;;;;;;;;2203414;59;2030;-23
2023/04/09 10:24:40;;;;;;;;;;;;;;;;;;2204003;67;1231;-23
2023/04/09 10:27:11;;;;;;;;;;;;;;;;;;2203922;59;2144;-23
2023/04/09 10:29:43;;;;;;;;;;;;;;;;;;2199216;59;2255;-23
2023/04/09 10:32:20;;;;;;;;;;;;;;;;;;2203446;59;2225;-23
2023/04/09 10:34:51;;;;;;;;;;;;;;;;;;2203962;59;2081;-23
2023/04/09 10:37:22;;;;;;;;;;;;;;;;;;2203589;59;2435;-23
2023/04/09 10:39:53;;;;;;;;;;;;;;;;;;2204762;67;1425;-23
2023/04/09 10:42:31;;;;;;;;;;;;;;;;;;2204515;59;2093;-23
2023/04/09 10:45:08;;;;;;;;;;;;;;;;;;2204195;59;2197;-23
2023/04/09 10:47:40;;;;;;;;;;;;;;;;;;2200796;59;1915;-23
2023/04/09 10:50:20;;;;;;;;;;;;;;;;;;2204435;67;2020;-23
2023/04/09 10:52:52;;;;;;;;;;;;;;;;;;2204802;59;2134;-23
2023/04/09 10:55:29;;;;;;;;;;;;;;;;;;2205672;59;2200;-23
2023/04/09 10:57:59;;;;;;;;;;;;;;;;;;2200710;59;2277;-23
2023/04/09 11:00:29;;;;;;;;;;;;;;;;;;2203893;59;1191;-23
2023/04/09 11:03:09;;;;;;;;;;;;;;;;;;2204480;59;2106;-23
2023/04/09 11:05:41;;;;;;;;;;;;;;;;;;2204460;67;1099;-23
2023/04/09 11:08:13;;;;;;;;;;;;;;;;;;2204052;59;2238;-23
2023/04/09 11:10:44;;;;;;;;;;;;;;;;;;2204674;59;1992;-23
2023/04/09 11:13:15;;;;;;;;;;;;;;;;;;2202878;59;1974;-23
2023/04/09 11:15:46;;;;;;;;;;;;;;;;;;2202622;59;2398;-23
2023/04/09 11:18:20;;;;;;;;;;;;;;;;;;2200968;67;1603;-23
2023/04/09 11:21:09;;;;;;;;;;;;;;;;;;2200693;59;2481;-23
2023/04/09 11:23:41;;;;;;;;;;;;;;;;;;2203906;67;2209;-23
2023/04/09 11:26:12;;;;;;;;;;;;;;;;;;2203825;59;2785;-23
2023/04/09 11:28:42;;;;;;;;;;;;;;;;;;2203950;67;1791;-23
2023/04/09 11:31:13;;;;;;;;;;;;;;;;;;2203627;59;2270;-22
2023/04/09 11:33:46;;;;;;;;;;;;;;;;;;2203666;59;1132;-22
2023/04/09 11:36:16;;;;;;;;;;;;;;;;;;2203124;59;2461;-22
2023/04/09 11:38:48;;;;;;;;;;;;;;;;;;2204280;59;1380;-23
2023/04/09 11:41:18;;;;;;;;;;;;;;;;;;2201546;59;2279;-23
2023/04/09 11:43:50;;;;;;;;;;;;;;;;;;2204851;67;1203;-23
2023/04/09 11:46:24;;;;;;;;;;;;;;;;;;2203937;67;2294;-23
2023/04/09 11:48:55;;;;;;;;;;;;;;;;;;2204041;59;1909;-23
2023/04/09 11:51:31;;;;;;;;;;;;;;;;;;2204371;59;2469;-23
2023/04/09 11:54:02;;;;;;;;;;;;;;;;;;2203563;67;1111;-23
2023/04/09 11:56:34;;;;;;;;;;;;;;;;;;2200406;64;2131;-23
2023/04/09 11:59:05;;;;;;;;;;;;;;;;;;2204678;59;1303;-23
2023/04/09 12:01:35;;;;;;;;;;;;;;;;;;2204674;59;2397;-23
2023/04/09 12:04:06;;;;;;;;;;;;;;;;;;2200031;59;1697;-23
2023/04/09 12:06:39;;;;;;;;;;;;;;;;;;2205100;67;1343;-23
2023/04/09 12:09:12;;;;;;;;;;;;;;;;;;2204184;59;1532;-23
2023/04/09 12:11:43;;;;;;;;;;;;;;;;;;2204638;67;1927;-23
2023/04/09 12:14:15;;;;;;;;;;;;;;;;;;2200745;59;1613;-23
2023/04/09 12:16:49;;;;;;;;;;;;;;;;;;2200617;59;2561;-23
2023/04/09 12:19:24;;;;;;;;;;;;;;;;;;2200592;67;1187;-23
2023/04/09 12:21:55;;;;;;;;;;;;;;;;;;2203780;59;2610;-23
2023/04/09 12:24:26;;;;;;;;;;;;;;;;;;2204929;67;1083;-23
2023/04/09 12:26:57;;;;;;;;;;;;;;;;;;2200725;59;2154;-23
2023/04/09 12:29:28;;;;;;;;;;;;;;;;;;2203739;59;1995;-23
2023/04/09 12:31:59;;;;;;;;;;;;;;;;;;2203585;59;2058;-23
2023/04/09 12:34:29;;;;;;;;;;;;;;;;;;2204639;67;1714;-23
2023/04/09 12:37:00;;;;;;;;;;;;;;;;;;2203869;59;2165;-23
2023/04/09 12:39:30;;;;;;;;;;;;;;;;;;2204198;67;1246;-23
2023/04/09 12:42:00;;;;;;;;;;;;;;;;;;2203074;59;2329;-24
2023/04/09 12:44:32;;;;;;;;;;;;;;;;;;2203879;59;2376;-23
2023/04/09 12:47:02;;;;;;;;;;;;;;;;;;2203965;67;1147;-23
2023/04/09 12:49:35;;;;;;;;;;;;;;;;;;2203711;59;2313;-23
2023/04/09 12:52:05;;;;;;;;;;;;;;;;;;2204334;67;1975;-23
2023/04/09 12:54:35;;;;;;;;;;;;;;;;;;2199677;59;2166;-24
2023/04/09 12:57:06;;;;;;;;;;;;;;;;;;2203677;67;1313;-23
2023/04/09 12:59:40;;;;;;;;;;;;;;;;;;2203918;59;2461;-23
2023/04/09 13:02:10;;;;;;;;;;;;;;;;;;2203964;67;1257;-23
2023/04/09 13:04:40;;;;;;;;;;;;;;;;;;2203286;59;2104;-23
2023/04/09 13:07:11;;;;;;;;;;;;;;;;;;2203907;59;1709;-23
2023/04/09 13:09:42;;;;;;;;;;;;;;;;;;2203374;59;1959;-23
2023/04/09 13:12:12;;;;;;;;;;;;;;;;;;2203866;67;2000;-23
2023/04/09 13:14:43;;;;;;;;;;;;;;;;;;2204697;59;2076;-23
2023/04/09 13:17:14;;;;;;;;;;;;;;;;;;2204541;67;1379;-23
2023/04/09 13:19:44;;;;;;;;;;;;;;;;;;2204003;59;2042;-23
2023/04/09 13:22:15;;;;;;;;;;;;;;;;;;2202414;59;2087;-23
2023/04/09 13:24:45;;;;;;;;;;;;;;;;;;2203074;59;2132;-23
2023/04/09 13:27:15;;;;;;;;;;;;;;;;;;2203861;67;1163;-23
2023/04/09 13:29:45;;;;;;;;;;;;;;;;;;2204744;59;2096;-23
2023/04/09 13:32:17;;;;;;;;;;;;;;;;;;2204609;67;1939;-23
2023/04/09 13:34:48;;;;;;;;;;;;;;;;;;2201092;59;2297;-23
2023/04/09 13:37:18;;;;;;;;;;;;;;;;;;2204136;67;1202;-23
2023/04/09 13:39:49;;;;;;;;;;;;;;;;;;2204239;59;2115;-23
2023/04/09 13:42:19;;;;;;;;;;;;;;;;;;2204486;59;2103;-23
2023/04/09 13:44:50;;;;;;;;;;;;;;;;;;2203914;59;2359;-23
2023/04/09 13:47:22;;;;;;;;;;;;;;;;;;2203272;59;2106;-23
2023/04/09 13:49:52;;;;;;;;;;;;;;;;;;2203378;59;2104;-23
2023/04/09 13:52:24;;;;;;;;;;;;;;;;;;2204143;67;1173;-23
2023/04/09 13:54:54;;;;;;;;;;;;;;;;;;2203702;59;2580;-23
2023/04/09 13:57:24;;;;;;;;;;;;;;;;;;2204595;67;2262;-23
2023/04/09 13:59:54;;;;;;;;;;;;;;;;;;2204217;59;2012;-23
2023/04/09 14:02:25;;;;;;;;;;;;;;;;;;2204607;67;1356;-23
2023/04/09 14:04:55;;;;;;;;;;;;;;;;;;2206090;59;2012;-23
2023/04/09 14:07:26;;;;;;;;;;;;;;;;;;2204993;59;1252;-23
2023/04/09 14:09:56;;;;;;;;;;;;;;;;;;2202702;59;2023;-23
2023/04/09 14:12:26;;;;;;;;;;;;;;;;;;2206669;67;1328;-23
2023/04/09 14:14:56;;;;;;;;;;;;;;;;;;2206796;59;2023;-23
2023/04/09 14:17:27;;;;;;;;;;;;;;;;;;2205209;59;2211;-23
2023/04/09 14:19:57;;;;;;;;;;;;;;;;;;2204672;59;2156;-23
2023/04/09 14:22:28;;;;;;;;;;;;;;;;;;2204734;67;1154;-23
2023/04/09 14:24:58;;;;;;;;;;;;;;;;;;2204256;67;1341;-23
2023/04/09 14:27:29;;;;;;;;;;;;;;;;;;2204580;59;2039;-23
2023/04/09 14:29:59;;;;;;;;;;;;;;;;;;2204786;59;1938;-23
2023/04/09 14:32:30;;;;;;;;;;;;;;;;;;2204695;59;2091;-23
2023/04/09 14:35:00;;;;;;;;;;;;;;;;;;2204762;59;1397;-23
2023/04/09 14:37:31;;;;;;;;;;;;;;;;;;2203557;59;2230;-23
2023/04/09 14:40:01;;;;;;;;;;;;;;;;;;2201378;59;2359;-23
2023/04/09 14:42:34;;;;;;;;;;;;;;;;;;2203782;59;2046;-23
2023/04/09 14:45:04;;;;;;;;;;;;;;;;;;2203472;59;1739;-23
2023/04/09 14:47:35;;;;;;;;;;;;;;;;;;2202652;59;2035;-23
2023/04/09 14:50:05;;;;;;;;;;;;;;;;;;2204249;67;1932;-23
2023/04/09 14:52:35;;;;;;;;;;;;;;;;;;2200734;59;2272;-23
2023/04/09 14:55:10;;;;;;;;;;;;;;;;;;2204469;59;2048;-23
2023/04/09 14:57:41;;;;;;;;;;;;;;;;;;2204099;59;2229;-23
2023/04/09 15:00:11;;;;;;;;;;;;;;;;;;2204506;59;1274;-23
2023/04/09 15:02:42;;;;;;;;;;;;;;;;;;2203897;59;2324;-23
2023/04/09 15:05:12;;;;;;;;;;;;;;;;;;2203939;59;2340;-23
2023/04/09 15:07:43;;;;;;;;;;;;;;;;;;2204613;59;2186;-23
2023/04/09 15:10:13;;;;;;;;;;;;;;;;;;2204540;59;1999;-23
2023/04/09 15:12:44;;;;;;;;;;;;;;;;;;2204010;59;2290;-23
2023/04/09 15:15:14;;;;;;;;;;;;;;;;;;2204350;59;1527;-23
2023/04/09 15:17:44;;;;;;;;;;;;;;;;;;2204603;59;2097;-23
2023/04/09 15:20:15;;;;;;;;;;;;;;;;;;2204181;67;1257;-23
2023/04/09 15:22:45;;;;;;;;;;;;;;;;;;2204675;59;2036;-23
2023/04/09 15:25:16;;;;;;;;;;;;;;;;;;2204994;67;1141;-23
2023/04/09 15:27:46;;;;;;;;;;;;;;;;;;2203823;59;2171;-23
2023/04/09 15:30:16;;;;;;;;;;;;;;;;;;2204195;59;1932;-23
2023/04/09 15:32:46;;;;;;;;;;;;;;;;;;2201447;59;2130;-23
2023/04/09 15:35:22;;;;;;;;;;;;;;;;;;2204487;67;1440;-23
2023/04/09 15:37:53;;;;;;;;;;;;;;;;;;2199367;59;3280;-23
2023/04/09 15:40:23;;;;;;;;;;;;;;;;;;2203840;59;2271;-23
2023/04/09 15:42:53;;;;;;;;;;;;;;;;;;2203894;59;2456;-23
2023/04/09 15:45:24;;;;;;;;;;;;;;;;;;2204554;59;1758;-23
2023/04/09 15:47:55;;;;;;;;;;;;;;;;;;2200318;59;2308;-23
2023/04/09 15:50:25;;;;;;;;;;;;;;;;;;2204716;67;1934;-23
2023/04/09 15:52:55;;;;;;;;;;;;;;;;;;2204485;59;2143;-23
2023/04/09 15:55:28;;;;;;;;;;;;;;;;;;2204976;67;1130;-23
2023/04/09 15:57:58;;;;;;;;;;;;;;;;;;2204312;59;2095;-23
2023/04/09 16:00:29;;;;;;;;;;;;;;;;;;2201974;59;2217;-23
2023/04/09 16:02:59;;;;;;;;;;;;;;;;;;2202956;59;2146;-23
2023/04/09 16:05:29;;;;;;;;;;;;;;;;;;2202101;59;1661;-23
2023/04/09 16:08:00;;;;;;;;;;;;;;;;;;2202454;59;1199;-23
2023/04/09 16:10:30;;;;;;;;;;;;;;;;;;2201686;59;2248;-23
2023/04/09 16:13:00;;;;;;;;;;;;;;;;;;2204361;67;1254;-23
2023/04/09 16:15:31;;;;;;;;;;;;;;;;;;2204912;59;2238;-23
2023/04/09 16:18:01;;;;;;;;;;;;;;;;;;2201203;59;1685;-23
2023/04/09 16:20:31;;;;;;;;;;;;;;;;;;2203811;59;2475;-23
2023/04/09 16:23:01;;;;;;;;;;;;;;;;;;2203873;59;1718;-23
2023/04/09 16:25:31;;;;;;;;;;;;;;;;;;2203155;59;2141;-23
2023/04/09 16:28:02;;;;;;;;;;;;;;;;;;2199926;67;1634;-23
2023/04/09 16:30:32;;;;;;;;;;;;;;;;;;2201958;67;2124;-23
2023/04/09 16:33:02;;;;;;;;;;;;;;;;;;2203909;67;1569;-23
2023/04/09 16:35:32;;;;;;;;;;;;;;;;;;2204811;59;2093;-23
2023/04/09 16:38:06;;;;;;;;;;;;;;;;;;2201353;67;2074;-23
2023/04/09 16:40:36;;;;;;;;;;;;;;;;;;2199469;59;2462;-23
2023/04/09 16:43:06;;;;;;;;;;;;;;;;;;2204262;67;1677;-22
2023/04/09 16:45:37;;;;;;;;;;;;;;;;;;2204112;59;2146;-22
2023/04/09 16:48:10;;;;;;;;;;;;;;;;;;2204740;67;1428;-22
2023/04/09 16:50:41;;;;;;;;;;;;;;;;;;2204054;59;2218;-22
2023/04/09 16:53:12;;;;;;;;;;;;;;;;;;2204632;59;1675;-22
2023/04/09 16:55:43;;;;;;;;;;;;;;;;;;2197839;67;2166;-22
2023/04/09 16:58:13;;;;;;;;;;;;;;;;;;2204069;59;2154;-22
2023/04/09 17:00:44;;;;;;;;;;;;;;;;;;2204425;59;1662;-22
2023/04/09 17:03:14;;;;;;;;;;;;;;;;;;2204948;59;2200;-22
2023/04/09 17:05:47;;;;;;;;;;;;;;;;;;2204231;59;2331;-22
2023/04/09 17:08:22;;;;;;;;;;;;;;;;;;2202884;59;2338;-23
2023/04/09 17:11:00;;;;;;;;;;;;;;;;;;2203354;59;2073;-22
2023/04/09 17:13:33;;;;;;;;;;;;;;;;;;2203484;59;2120;-22
2023/04/09 17:16:03;;;;;;;;;;;;;;;;;;2204324;67;1202;-22
2023/04/09 17:18:33;;;;;;;;;;;;;;;;;;2204398;59;2071;-22
2023/04/09 17:21:05;;;;;;;;;;;;;;;;;;2197631;67;1600;-22
2023/04/09 17:23:35;;;;;;;;;;;;;;;;;;2203701;59;2206;-24
2023/04/09 17:26:06;;;;;;;;;;;;;;;;;;2204372;59;1177;-25
2023/04/09 17:28:36;;;;;;;;;;;;;;;;;;2204530;59;2182;-24
2023/04/09 17:31:14;;;;;;;;;;;;;;;;;;2201871;59;1921;-25